sensor_id;sensor_type;location;lat;lon;timestamp;temperature;humidity
6824;DHT22;58633;49.470;11.004;2023-02-01T00:01:36;5.10;93.70
6824;DHT22;58633;49.470;11.004;2023-02-01T00:04:02;5.20;93.90
6824;DHT22;58633;49.470;11.004;2023-02-01T00:06:27;6.20;94.10
6824;DHT22;58633;49.470;11.004;2023-02-01T00:08:53;5.00;94.20
6824;DHT22;58633;49.470;11.004;2023-02-01T00:11:19;5.00;95.60
6824;DHT22;58633;49.470;11.004;2023-02-01T00:13:45;5.00;96.70
6824;DHT22;58633;49.470;11.004;2023-02-01T00:16:13;5.10;96.40
6824;DHT22;58633;49.470;11.004;2023-02-01T00:18:42;5.10;96.90
6824;DHT22;58633;49.470;11.004;2023-02-01T00:21:07;5.10;96.70
6824;DHT22;58633;49.470;11.004;2023-02-01T00:23:35;5.20;96.90
6824;DHT22;58633;49.470;11.004;2023-02-01T00:26:02;5.20;96.10
6824;DHT22;58633;49.470;11.004;2023-02-01T00:28:28;5.20;96.30
6824;DHT22;58633;49.470;11.004;2023-02-01T00:31:01;5.20;96.20
6824;DHT22;58633;49.470;11.004;2023-02-01T00:33:31;5.20;96.50
6824;DHT22;58633;49.470;11.004;2023-02-01T00:36:05;5.20;96.30
6824;DHT22;58633;49.470;11.004;2023-02-01T00:38:31;5.20;96.20
6824;DHT22;58633;49.470;11.004;2023-02-01T00:41:06;5.30;96.40
6824;DHT22;58633;49.470;11.004;2023-02-01T00:43:32;5.30;96.30
6824;DHT22;58633;49.470;11.004;2023-02-01T00:45:58;5.30;95.60
6824;DHT22;58633;49.470;11.004;2023-02-01T00:48:25;5.30;95.60
6824;DHT22;58633;49.470;11.004;2023-02-01T00:50:50;5.30;95.50
6824;DHT22;58633;49.470;11.004;2023-02-01T00:53:16;5.30;95.30
6824;DHT22;58633;49.470;11.004;2023-02-01T00:55:45;5.30;94.60
6824;DHT22;58633;49.470;11.004;2023-02-01T00:58:11;5.30;94.30
6824;DHT22;58633;49.470;11.004;2023-02-01T01:00:37;5.30;95.00
6824;DHT22;58633;49.470;11.004;2023-02-01T01:03:02;5.30;94.80
6824;DHT22;58633;49.470;11.004;2023-02-01T01:05:46;5.30;94.90
6824;DHT22;58633;49.470;11.004;2023-02-01T01:08:12;5.30;94.70
6824;DHT22;58633;49.470;11.004;2023-02-01T01:10:38;5.20;94.80
6824;DHT22;58633;49.470;11.004;2023-02-01T01:13:03;5.30;95.00
6824;DHT22;58633;49.470;11.004;2023-02-01T01:15:29;5.20;94.80
6824;DHT22;58633;49.470;11.004;2023-02-01T01:17:54;5.20;95.10
6824;DHT22;58633;49.470;11.004;2023-02-01T01:20:20;5.20;95.30
6824;DHT22;58633;49.470;11.004;2023-02-01T01:22:47;5.20;95.20
6824;DHT22;58633;49.470;11.004;2023-02-01T01:25:13;5.20;95.10
6824;DHT22;58633;49.470;11.004;2023-02-01T01:27:39;5.20;95.90
6824;DHT22;58633;49.470;11.004;2023-02-01T01:30:05;5.10;95.70
6824;DHT22;58633;49.470;11.004;2023-02-01T01:32:31;5.10;96.80
6824;DHT22;58633;49.470;11.004;2023-02-01T01:34:56;5.00;98.30
6824;DHT22;58633;49.470;11.004;2023-02-01T01:37:22;5.10;98.70
6824;DHT22;58633;49.470;11.004;2023-02-01T01:39:47;5.10;99.00
6824;DHT22;58633;49.470;11.004;2023-02-01T01:42:13;5.10;99.30
6824;DHT22;58633;49.470;11.004;2023-02-01T01:47:37;5.10;99.30
6824;DHT22;58633;49.470;11.004;2023-02-01T01:50:07;5.10;99.60
6824;DHT22;58633;49.470;11.004;2023-02-01T01:52:33;5.20;99.10
6824;DHT22;58633;49.470;11.004;2023-02-01T01:55:00;5.20;98.50
6824;DHT22;58633;49.470;11.004;2023-02-01T01:57:26;5.30;98.80
6824;DHT22;58633;49.470;11.004;2023-02-01T02:00:03;5.20;99.10
6824;DHT22;58633;49.470;11.004;2023-02-01T02:02:30;5.20;99.10
6824;DHT22;58633;49.470;11.004;2023-02-01T02:04:56;5.20;98.80
6824;DHT22;58633;49.470;11.004;2023-02-01T02:07:25;5.30;98.90
6824;DHT22;58633;49.470;11.004;2023-02-01T02:09:52;5.30;98.80
6824;DHT22;58633;49.470;11.004;2023-02-01T02:12:18;5.30;97.70
6824;DHT22;58633;49.470;11.004;2023-02-01T02:14:44;5.40;97.80
6824;DHT22;58633;49.470;11.004;2023-02-01T02:17:39;5.40;97.20
6824;DHT22;58633;49.470;11.004;2023-02-01T02:31:37;5.40;95.70
6824;DHT22;58633;49.470;11.004;2023-02-01T02:34:32;5.40;95.80
6824;DHT22;58633;49.470;11.004;2023-02-01T02:37:32;5.40;94.90
6824;DHT22;58633;49.470;11.004;2023-02-01T02:40:17;5.30;94.90
6824;DHT22;58633;49.470;11.004;2023-02-01T02:43:02;5.40;95.20
6824;DHT22;58633;49.470;11.004;2023-02-01T02:46:02;5.30;95.20
6824;DHT22;58633;49.470;11.004;2023-02-01T02:49:09;5.30;96.10
6824;DHT22;58633;49.470;11.004;2023-02-01T02:51:39;5.30;96.30
6824;DHT22;58633;49.470;11.004;2023-02-01T02:54:32;5.30;96.70
6824;DHT22;58633;49.470;11.004;2023-02-01T02:57:33;5.40;97.30
6824;DHT22;58633;49.470;11.004;2023-02-01T03:00:23;5.40;96.80
6824;DHT22;58633;49.470;11.004;2023-02-01T03:03:08;5.40;96.70
6824;DHT22;58633;49.470;11.004;2023-02-01T03:05:52;5.40;96.30
6824;DHT22;58633;49.470;11.004;2023-02-01T03:08:20;5.40;96.30
6824;DHT22;58633;49.470;11.004;2023-02-01T03:11:02;5.40;97.10
6824;DHT22;58633;49.470;11.004;2023-02-01T03:13:46;5.40;96.90
6824;DHT22;58633;49.470;11.004;2023-02-01T03:16:22;5.40;97.00
6824;DHT22;58633;49.470;11.004;2023-02-01T03:19:05;5.40;96.20
6824;DHT22;58633;49.470;11.004;2023-02-01T03:21:53;5.30;96.90
6824;DHT22;58633;49.470;11.004;2023-02-01T03:24:25;5.30;97.10
6824;DHT22;58633;49.470;11.004;2023-02-01T03:29:54;5.20;97.20
6824;DHT22;58633;49.470;11.004;2023-02-01T03:32:21;5.20;97.60
6824;DHT22;58633;49.470;11.004;2023-02-01T03:34:48;5.20;97.70
6824;DHT22;58633;49.470;11.004;2023-02-01T03:37:22;5.20;97.90
6824;DHT22;58633;49.470;11.004;2023-02-01T03:39:59;5.20;98.50
6824;DHT22;58633;49.470;11.004;2023-02-01T03:45:23;5.20;98.60
6824;DHT22;58633;49.470;11.004;2023-02-01T03:47:53;5.20;98.70
6824;DHT22;58633;49.470;11.004;2023-02-01T03:50:21;5.20;98.80
6824;DHT22;58633;49.470;11.004;2023-02-01T03:53:04;5.20;99.20
6824;DHT22;58633;49.470;11.004;2023-02-01T03:55:31;5.30;99.20
6824;DHT22;58633;49.470;11.004;2023-02-01T03:58:06;5.30;99.70
6824;DHT22;58633;49.470;11.004;2023-02-01T04:00:32;5.30;99.10
6824;DHT22;58633;49.470;11.004;2023-02-01T04:02:58;5.40;98.70
6824;DHT22;58633;49.470;11.004;2023-02-01T04:05:24;5.40;98.60
6824;DHT22;58633;49.470;11.004;2023-02-01T04:07:50;5.40;98.80
6824;DHT22;58633;49.470;11.004;2023-02-01T04:10:16;5.40;98.30
6824;DHT22;58633;49.470;11.004;2023-02-01T04:12:42;5.40;98.30
6824;DHT22;58633;49.470;11.004;2023-02-01T04:15:08;5.50;98.10
6824;DHT22;58633;49.470;11.004;2023-02-01T04:17:34;5.60;99.90
6824;DHT22;58633;49.470;11.004;2023-02-01T04:19:59;5.80;99.60
6824;DHT22;58633;49.470;11.004;2023-02-01T04:22:25;5.80;95.40
6824;DHT22;58633;49.470;11.004;2023-02-01T04:24:50;5.70;95.20
6824;DHT22;58633;49.470;11.004;2023-02-01T04:27:16;5.60;95.20
6824;DHT22;58633;49.470;11.004;2023-02-01T04:29:42;5.50;95.30
6824;DHT22;58633;49.470;11.004;2023-02-01T04:32:07;5.50;96.00
6824;DHT22;58633;49.470;11.004;2023-02-01T04:34:33;5.50;95.80
6824;DHT22;58633;49.470;11.004;2023-02-01T04:36:58;5.40;96.60
6824;DHT22;58633;49.470;11.004;2023-02-01T04:39:24;5.40;96.30
6824;DHT22;58633;49.470;11.004;2023-02-01T04:41:49;5.20;95.80
6824;DHT22;58633;49.470;11.004;2023-02-01T04:44:18;5.10;98.70
6824;DHT22;58633;49.470;11.004;2023-02-01T04:46:45;5.00;99.90
6824;DHT22;58633;49.470;11.004;2023-02-01T04:49:12;4.90;99.90
6824;DHT22;58633;49.470;11.004;2023-02-01T04:51:38;4.90;99.90
6824;DHT22;58633;49.470;11.004;2023-02-01T04:54:04;4.90;99.90
6824;DHT22;58633;49.470;11.004;2023-02-01T04:56:30;4.80;99.90
6824;DHT22;58633;49.470;11.004;2023-02-01T04:58:56;4.80;99.90
6824;DHT22;58633;49.470;11.004;2023-02-01T05:01:22;4.80;99.90
6824;DHT22;58633;49.470;11.004;2023-02-01T05:03:47;4.80;99.90
6824;DHT22;58633;49.470;11.004;2023-02-01T05:06:13;4.80;99.90
6824;DHT22;58633;49.470;11.004;2023-02-01T05:08:38;4.80;99.90
6824;DHT22;58633;49.470;11.004;2023-02-01T05:11:04;4.80;99.90
6824;DHT22;58633;49.470;11.004;2023-02-01T05:13:30;4.80;99.90
6824;DHT22;58633;49.470;11.004;2023-02-01T05:16:14;4.80;99.90
6824;DHT22;58633;49.470;11.004;2023-02-01T05:18:40;4.80;99.90
6824;DHT22;58633;49.470;11.004;2023-02-01T05:21:05;4.80;99.90
6824;DHT22;58633;49.470;11.004;2023-02-01T05:23:31;4.80;99.90
6824;DHT22;58633;49.470;11.004;2023-02-01T05:26:00;4.80;99.90
6824;DHT22;58633;49.470;11.004;2023-02-01T05:28:27;4.80;99.90
6824;DHT22;58633;49.470;11.004;2023-02-01T05:30:53;4.80;99.90
6824;DHT22;58633;49.470;11.004;2023-02-01T05:33:18;4.80;99.90
6824;DHT22;58633;49.470;11.004;2023-02-01T05:35:44;4.80;99.90
6824;DHT22;58633;49.470;11.004;2023-02-01T05:38:09;4.90;99.90
6824;DHT22;58633;49.470;11.004;2023-02-01T05:40:35;5.00;99.90
6824;DHT22;58633;49.470;11.004;2023-02-01T05:43:00;4.90;99.90
6824;DHT22;58633;49.470;11.004;2023-02-01T05:45:26;4.90;99.90
6824;DHT22;58633;49.470;11.004;2023-02-01T05:47:51;4.90;99.90
6824;DHT22;58633;49.470;11.004;2023-02-01T05:50:17;4.90;99.90
6824;DHT22;58633;49.470;11.004;2023-02-01T05:52:42;4.90;99.90
6824;DHT22;58633;49.470;11.004;2023-02-01T05:55:08;4.90;99.90
6824;DHT22;58633;49.470;11.004;2023-02-01T05:57:34;4.90;99.90
6824;DHT22;58633;49.470;11.004;2023-02-01T05:59:59;4.80;99.90
6824;DHT22;58633;49.470;11.004;2023-02-01T06:02:25;4.80;99.90
6824;DHT22;58633;49.470;11.004;2023-02-01T06:04:51;4.70;99.90
6824;DHT22;58633;49.470;11.004;2023-02-01T06:07:16;4.70;99.90
6824;DHT22;58633;49.470;11.004;2023-02-01T06:09:42;4.60;99.90
6824;DHT22;58633;49.470;11.004;2023-02-01T06:12:07;4.60;99.90
6824;DHT22;58633;49.470;11.004;2023-02-01T06:14:33;4.50;99.90
6824;DHT22;58633;49.470;11.004;2023-02-01T06:16:59;4.40;99.90
6824;DHT22;58633;49.470;11.004;2023-02-01T06:19:24;4.40;99.90
6824;DHT22;58633;49.470;11.004;2023-02-01T06:21:50;4.40;99.90
6824;DHT22;58633;49.470;11.004;2023-02-01T06:24:15;4.50;99.90
6824;DHT22;58633;49.470;11.004;2023-02-01T06:26:41;4.40;99.90
6824;DHT22;58633;49.470;11.004;2023-02-01T06:29:09;4.40;99.90
6824;DHT22;58633;49.470;11.004;2023-02-01T06:31:35;4.40;99.90
6824;DHT22;58633;49.470;11.004;2023-02-01T06:34:01;4.40;99.90
6824;DHT22;58633;49.470;11.004;2023-02-01T06:36:28;4.40;99.90
6824;DHT22;58633;49.470;11.004;2023-02-01T06:38:55;4.50;99.90
6824;DHT22;58633;49.470;11.004;2023-02-01T06:41:22;4.40;99.90
6824;DHT22;58633;49.470;11.004;2023-02-01T06:43:48;4.40;99.90
6824;DHT22;58633;49.470;11.004;2023-02-01T06:46:13;4.50;99.90
6824;DHT22;58633;49.470;11.004;2023-02-01T06:48:39;4.50;99.90
6824;DHT22;58633;49.470;11.004;2023-02-01T06:51:05;4.50;99.90
6824;DHT22;58633;49.470;11.004;2023-02-01T06:53:30;4.50;99.90
6824;DHT22;58633;49.470;11.004;2023-02-01T06:56:02;4.50;99.90
6824;DHT22;58633;49.470;11.004;2023-02-01T06:58:29;4.50;99.90
6824;DHT22;58633;49.470;11.004;2023-02-01T07:00:55;4.50;99.90
6824;DHT22;58633;49.470;11.004;2023-02-01T07:03:21;4.50;99.90
6824;DHT22;58633;49.470;11.004;2023-02-01T07:05:46;4.50;99.90
6824;DHT22;58633;49.470;11.004;2023-02-01T07:08:12;4.50;99.90
6824;DHT22;58633;49.470;11.004;2023-02-01T07:10:37;4.50;99.90
6824;DHT22;58633;49.470;11.004;2023-02-01T07:13:03;4.40;99.90
6824;DHT22;58633;49.470;11.004;2023-02-01T07:15:29;4.40;99.90
6824;DHT22;58633;49.470;11.004;2023-02-01T07:17:55;4.50;99.90
6824;DHT22;58633;49.470;11.004;2023-02-01T07:20:21;4.50;99.90
6824;DHT22;58633;49.470;11.004;2023-02-01T07:22:46;4.40;99.90
6824;DHT22;58633;49.470;11.004;2023-02-01T07:25:12;5.00;99.90
6824;DHT22;58633;49.470;11.004;2023-02-01T07:27:37;4.60;99.90
6824;DHT22;58633;49.470;11.004;2023-02-01T07:30:04;4.50;99.90
6824;DHT22;58633;49.470;11.004;2023-02-01T07:32:30;4.50;99.90
6824;DHT22;58633;49.470;11.004;2023-02-01T07:34:56;4.60;99.90
6824;DHT22;58633;49.470;11.004;2023-02-01T07:37:22;4.60;99.90
6824;DHT22;58633;49.470;11.004;2023-02-01T07:39:49;4.70;99.90
6824;DHT22;58633;49.470;11.004;2023-02-01T07:42:15;4.80;99.90
6824;DHT22;58633;49.470;11.004;2023-02-01T07:44:40;4.80;99.90
6824;DHT22;58633;49.470;11.004;2023-02-01T07:47:06;4.80;99.90
6824;DHT22;58633;49.470;11.004;2023-02-01T07:49:32;4.80;99.90
6824;DHT22;58633;49.470;11.004;2023-02-01T07:51:57;4.90;99.90
6824;DHT22;58633;49.470;11.004;2023-02-01T07:54:23;4.90;99.90
6824;DHT22;58633;49.470;11.004;2023-02-01T07:56:48;4.90;99.90
6824;DHT22;58633;49.470;11.004;2023-02-01T07:59:14;5.10;99.90
6824;DHT22;58633;49.470;11.004;2023-02-01T08:01:41;5.40;99.90
6824;DHT22;58633;49.470;11.004;2023-02-01T08:04:10;5.60;99.90
6824;DHT22;58633;49.470;11.004;2023-02-01T08:06:36;5.70;99.90
6824;DHT22;58633;49.470;11.004;2023-02-01T08:09:03;5.70;99.90
6824;DHT22;58633;49.470;11.004;2023-02-01T08:11:29;5.60;99.90
6824;DHT22;58633;49.470;11.004;2023-02-01T08:13:55;5.30;99.90
6824;DHT22;58633;49.470;11.004;2023-02-01T08:16:22;5.30;99.90
6824;DHT22;58633;49.470;11.004;2023-02-01T08:18:47;5.20;99.90
6824;DHT22;58633;49.470;11.004;2023-02-01T08:21:31;5.20;99.90
6824;DHT22;58633;49.470;11.004;2023-02-01T08:24:04;5.20;99.90
6824;DHT22;58633;49.470;11.004;2023-02-01T08:26:29;5.20;99.90
6824;DHT22;58633;49.470;11.004;2023-02-01T08:28:57;5.30;99.90
6824;DHT22;58633;49.470;11.004;2023-02-01T08:31:27;5.20;99.90
6824;DHT22;58633;49.470;11.004;2023-02-01T08:33:55;5.30;99.90
6824;DHT22;58633;49.470;11.004;2023-02-01T08:36:22;5.40;99.90
6824;DHT22;58633;49.470;11.004;2023-02-01T08:38:48;5.60;99.90
6824;DHT22;58633;49.470;11.004;2023-02-01T08:41:17;5.50;99.90
6824;DHT22;58633;49.470;11.004;2023-02-01T08:43:43;5.50;99.90
6824;DHT22;58633;49.470;11.004;2023-02-01T08:46:09;5.60;99.90
6824;DHT22;58633;49.470;11.004;2023-02-01T08:48:35;5.60;99.30
6824;DHT22;58633;49.470;11.004;2023-02-01T08:51:06;5.60;98.80
6824;DHT22;58633;49.470;11.004;2023-02-01T08:53:32;5.70;99.60
6824;DHT22;58633;49.470;11.004;2023-02-01T08:55:58;5.80;99.10
6824;DHT22;58633;49.470;11.004;2023-02-01T08:58:24;5.90;97.70
6824;DHT22;58633;49.470;11.004;2023-02-01T09:00:49;5.90;96.20
6824;DHT22;58633;49.470;11.004;2023-02-01T09:03:15;5.90;94.50
6824;DHT22;58633;49.470;11.004;2023-02-01T09:05:41;5.90;94.60
6824;DHT22;58633;49.470;11.004;2023-02-01T09:08:07;5.90;95.40
6824;DHT22;58633;49.470;11.004;2023-02-01T09:10:34;5.90;95.30
6824;DHT22;58633;49.470;11.004;2023-02-01T09:12:59;5.90;94.50
6824;DHT22;58633;49.470;11.004;2023-02-01T09:15:25;5.80;94.90
6824;DHT22;58633;49.470;11.004;2023-02-01T09:17:51;5.80;95.40
6824;DHT22;58633;49.470;11.004;2023-02-01T09:20:16;5.70;95.00
6824;DHT22;58633;49.470;11.004;2023-02-01T09:22:42;5.60;93.50
6824;DHT22;58633;49.470;11.004;2023-02-01T09:25:08;5.60;95.70
6824;DHT22;58633;49.470;11.004;2023-02-01T09:27:34;5.50;94.20
6824;DHT22;58633;49.470;11.004;2023-02-01T09:30:00;5.30;95.50
6824;DHT22;58633;49.470;11.004;2023-02-01T09:32:25;5.20;94.10
6824;DHT22;58633;49.470;11.004;2023-02-01T09:34:52;5.00;95.20
6824;DHT22;58633;49.470;11.004;2023-02-01T09:37:18;4.90;95.20
6824;DHT22;58633;49.470;11.004;2023-02-01T09:39:44;4.70;98.20
6824;DHT22;58633;49.470;11.004;2023-02-01T09:47:47;4.50;99.90
6824;DHT22;58633;49.470;11.004;2023-02-01T09:50:17;4.50;99.90
6824;DHT22;58633;49.470;11.004;2023-02-01T09:52:54;4.50;99.90
6824;DHT22;58633;49.470;11.004;2023-02-01T09:55:36;4.60;99.90
6824;DHT22;58633;49.470;11.004;2023-02-01T10:00:52;5.10;99.90
6824;DHT22;58633;49.470;11.004;2023-02-01T10:03:18;5.20;99.40
6824;DHT22;58633;49.470;11.004;2023-02-01T10:08:40;5.40;98.90
6824;DHT22;58633;49.470;11.004;2023-02-01T10:11:23;5.40;99.70
6824;DHT22;58633;49.470;11.004;2023-02-01T10:14:20;5.40;99.10
6824;DHT22;58633;49.470;11.004;2023-02-01T10:22:40;5.30;99.90
6824;DHT22;58633;49.470;11.004;2023-02-01T10:28:15;5.50;99.80
6824;DHT22;58633;49.470;11.004;2023-02-01T10:30:46;5.50;99.90
6824;DHT22;58633;49.470;11.004;2023-02-01T10:33:26;5.60;99.70
6824;DHT22;58633;49.470;11.004;2023-02-01T10:36:19;5.60;99.90
6824;DHT22;58633;49.470;11.004;2023-02-01T10:38:46;5.50;97.80
6824;DHT22;58633;49.470;11.004;2023-02-01T10:41:19;5.60;99.70
6824;DHT22;58633;49.470;11.004;2023-02-01T10:43:49;5.60;98.80
6824;DHT22;58633;49.470;11.004;2023-02-01T10:46:17;5.60;98.00
6824;DHT22;58633;49.470;11.004;2023-02-01T10:48:42;5.50;97.70
6824;DHT22;58633;49.470;11.004;2023-02-01T10:51:26;5.50;99.60
6824;DHT22;58633;49.470;11.004;2023-02-01T10:53:58;5.80;99.90
6824;DHT22;58633;49.470;11.004;2023-02-01T10:56:27;5.80;97.20
6824;DHT22;58633;49.470;11.004;2023-02-01T10:59:01;5.80;96.50
6824;DHT22;58633;49.470;11.004;2023-02-01T11:01:34;5.70;97.20
6824;DHT22;58633;49.470;11.004;2023-02-01T11:04:03;5.70;97.70
6824;DHT22;58633;49.470;11.004;2023-02-01T11:06:37;6.60;98.30
6824;DHT22;58633;49.470;11.004;2023-02-01T11:16:53;5.90;96.40
6824;DHT22;58633;49.470;11.004;2023-02-01T11:19:19;5.80;96.00
6824;DHT22;58633;49.470;11.004;2023-02-01T11:21:49;5.70;94.20
6824;DHT22;58633;49.470;11.004;2023-02-01T11:24:29;5.70;92.90
6824;DHT22;58633;49.470;11.004;2023-02-01T11:27:00;5.70;93.00
6824;DHT22;58633;49.470;11.004;2023-02-01T11:29:41;5.70;93.30
6824;DHT22;58633;49.470;11.004;2023-02-01T11:32:10;5.60;91.70
6824;DHT22;58633;49.470;11.004;2023-02-01T11:34:46;5.60;90.60
6824;DHT22;58633;49.470;11.004;2023-02-01T11:39:57;5.60;89.00
6824;DHT22;58633;49.470;11.004;2023-02-01T11:42:24;5.70;89.10
6824;DHT22;58633;49.470;11.004;2023-02-01T11:44:50;6.00;89.50
6824;DHT22;58633;49.470;11.004;2023-02-01T11:47:26;6.00;88.90
6824;DHT22;58633;49.470;11.004;2023-02-01T11:50:00;6.10;86.60
6824;DHT22;58633;49.470;11.004;2023-02-01T11:52:33;6.10;85.70
6824;DHT22;58633;49.470;11.004;2023-02-01T11:55:49;6.20;84.90
6824;DHT22;58633;49.470;11.004;2023-02-01T12:02:18;6.20;83.90
6824;DHT22;58633;49.470;11.004;2023-02-01T12:04:50;6.20;84.00
6824;DHT22;58633;49.470;11.004;2023-02-01T12:07:28;6.20;83.30
6824;DHT22;58633;49.470;11.004;2023-02-01T12:15:34;6.40;82.50
6824;DHT22;58633;49.470;11.004;2023-02-01T12:21:27;6.10;81.20
6824;DHT22;58633;49.470;11.004;2023-02-01T12:29:30;7.30;83.60
6824;DHT22;58633;49.470;11.004;2023-02-01T12:32:24;6.10;81.40
6824;DHT22;58633;49.470;11.004;2023-02-01T12:35:11;6.20;81.40
6824;DHT22;58633;49.470;11.004;2023-02-01T12:37:56;6.30;80.90
6824;DHT22;58633;49.470;11.004;2023-02-01T12:40:50;6.30;80.10
6824;DHT22;58633;49.470;11.004;2023-02-01T12:45:58;6.20;78.50
6824;DHT22;58633;49.470;11.004;2023-02-01T12:48:35;6.30;78.30
6824;DHT22;58633;49.470;11.004;2023-02-01T12:51:09;6.30;77.70
6824;DHT22;58633;49.470;11.004;2023-02-01T12:53:50;6.40;77.50
6824;DHT22;58633;49.470;11.004;2023-02-01T12:56:31;6.40;77.10
6824;DHT22;58633;49.470;11.004;2023-02-01T12:59:01;6.40;76.30
6824;DHT22;58633;49.470;11.004;2023-02-01T13:01:34;6.40;74.80
6824;DHT22;58633;49.470;11.004;2023-02-01T13:04:08;6.50;75.60
6824;DHT22;58633;49.470;11.004;2023-02-01T13:07:02;6.50;75.50
6824;DHT22;58633;49.470;11.004;2023-02-01T13:09:50;6.50;75.00
6824;DHT22;58633;49.470;11.004;2023-02-01T13:12:25;6.40;75.20
6824;DHT22;58633;49.470;11.004;2023-02-01T13:15:03;6.40;75.10
6824;DHT22;58633;49.470;11.004;2023-02-01T13:17:31;6.30;75.20
6824;DHT22;58633;49.470;11.004;2023-02-01T13:22:39;6.20;75.10
6824;DHT22;58633;49.470;11.004;2023-02-01T13:25:19;6.10;75.40
6824;DHT22;58633;49.470;11.004;2023-02-01T13:27:49;6.00;75.70
6824;DHT22;58633;49.470;11.004;2023-02-01T13:30:22;6.00;76.20
6824;DHT22;58633;49.470;11.004;2023-02-01T13:41:24;6.30;76.30
6824;DHT22;58633;49.470;11.004;2023-02-01T13:43:55;6.40;76.00
6824;DHT22;58633;49.470;11.004;2023-02-01T13:46:21;6.30;75.30
6824;DHT22;58633;49.470;11.004;2023-02-01T13:48:54;6.30;75.30
6824;DHT22;58633;49.470;11.004;2023-02-01T13:53:59;6.60;76.20
6824;DHT22;58633;49.470;11.004;2023-02-01T13:56:26;6.70;75.20
6824;DHT22;58633;49.470;11.004;2023-02-01T13:58:51;6.60;74.80
6824;DHT22;58633;49.470;11.004;2023-02-01T14:03:47;6.60;74.50
6824;DHT22;58633;49.470;11.004;2023-02-01T14:09:19;6.70;74.00
6824;DHT22;58633;49.470;11.004;2023-02-01T14:11:55;6.80;73.90
6824;DHT22;58633;49.470;11.004;2023-02-01T14:19:29;6.60;73.50
6824;DHT22;58633;49.470;11.004;2023-02-01T14:21:58;6.60;73.50
6824;DHT22;58633;49.470;11.004;2023-02-01T14:24:30;6.70;73.50
6824;DHT22;58633;49.470;11.004;2023-02-01T14:26:59;6.50;73.30
6824;DHT22;58633;49.470;11.004;2023-02-01T14:47:41;6.30;73.70
6824;DHT22;58633;49.470;11.004;2023-02-01T14:55:59;6.20;73.30
6824;DHT22;58633;49.470;11.004;2023-02-01T14:58:42;6.20;73.50
6824;DHT22;58633;49.470;11.004;2023-02-01T15:04:14;6.20;73.60
6824;DHT22;58633;49.470;11.004;2023-02-01T15:06:56;6.20;73.60
6824;DHT22;58633;49.470;11.004;2023-02-01T15:14:45;6.00;73.50
6824;DHT22;58633;49.470;11.004;2023-02-01T15:17:23;6.10;73.90
6824;DHT22;58633;49.470;11.004;2023-02-01T15:19:57;6.10;73.80
6824;DHT22;58633;49.470;11.004;2023-02-01T15:22:23;6.20;74.40
6824;DHT22;58633;49.470;11.004;2023-02-01T15:24:54;6.20;73.70
6824;DHT22;58633;49.470;11.004;2023-02-01T15:27:20;6.10;73.80
6824;DHT22;58633;49.470;11.004;2023-02-01T15:29:46;6.10;73.80
6824;DHT22;58633;49.470;11.004;2023-02-01T15:32:31;6.30;74.00
6824;DHT22;58633;49.470;11.004;2023-02-01T15:34:57;6.20;73.60
6824;DHT22;58633;49.470;11.004;2023-02-01T15:37:23;6.90;74.10
6824;DHT22;58633;49.470;11.004;2023-02-01T15:40:21;6.10;73.50
6824;DHT22;58633;49.470;11.004;2023-02-01T15:42:58;6.10;73.10
6824;DHT22;58633;49.470;11.004;2023-02-01T15:45:29;6.10;73.00
6824;DHT22;58633;49.470;11.004;2023-02-01T15:47:58;6.10;73.00
6824;DHT22;58633;49.470;11.004;2023-02-01T15:50:24;6.10;72.80
6824;DHT22;58633;49.470;11.004;2023-02-01T15:52:54;6.10;72.60
6824;DHT22;58633;49.470;11.004;2023-02-01T15:55:33;6.00;72.30
6824;DHT22;58633;49.470;11.004;2023-02-01T15:58:00;6.00;72.40
6824;DHT22;58633;49.470;11.004;2023-02-01T16:00:29;6.20;73.30
6824;DHT22;58633;49.470;11.004;2023-02-01T16:02:57;6.20;72.40
6824;DHT22;58633;49.470;11.004;2023-02-01T16:05:32;6.10;71.40
6824;DHT22;58633;49.470;11.004;2023-02-01T16:08:10;6.00;71.20
6824;DHT22;58633;49.470;11.004;2023-02-01T16:10:43;6.00;71.20
6824;DHT22;58633;49.470;11.004;2023-02-01T16:13:10;6.00;70.90
6824;DHT22;58633;49.470;11.004;2023-02-01T16:15:35;6.00;71.00
6824;DHT22;58633;49.470;11.004;2023-02-01T16:18:01;6.00;70.70
6824;DHT22;58633;49.470;11.004;2023-02-01T16:20:26;6.00;70.70
6824;DHT22;58633;49.470;11.004;2023-02-01T16:22:52;6.00;70.40
6824;DHT22;58633;49.470;11.004;2023-02-01T16:25:17;6.00;70.40
6824;DHT22;58633;49.470;11.004;2023-02-01T16:27:43;6.00;70.20
6824;DHT22;58633;49.470;11.004;2023-02-01T16:30:09;6.00;70.20
6824;DHT22;58633;49.470;11.004;2023-02-01T16:32:36;6.00;69.90
6824;DHT22;58633;49.470;11.004;2023-02-01T16:35:13;6.00;69.90
6824;DHT22;58633;49.470;11.004;2023-02-01T16:37:44;6.00;69.70
6824;DHT22;58633;49.470;11.004;2023-02-01T16:40:14;6.00;69.70
6824;DHT22;58633;49.470;11.004;2023-02-01T16:42:40;6.00;69.50
6824;DHT22;58633;49.470;11.004;2023-02-01T16:45:06;6.00;69.60
6824;DHT22;58633;49.470;11.004;2023-02-01T16:47:32;6.00;69.60
6824;DHT22;58633;49.470;11.004;2023-02-01T16:49:59;6.10;69.60
6824;DHT22;58633;49.470;11.004;2023-02-01T16:52:26;6.00;69.40
6824;DHT22;58633;49.470;11.004;2023-02-01T16:54:52;6.10;69.40
6824;DHT22;58633;49.470;11.004;2023-02-01T16:57:19;6.10;69.20
6824;DHT22;58633;49.470;11.004;2023-02-01T16:59:47;6.00;68.90
6824;DHT22;58633;49.470;11.004;2023-02-01T17:02:17;6.00;69.00
6824;DHT22;58633;49.470;11.004;2023-02-01T17:04:45;6.10;69.50
6824;DHT22;58633;49.470;11.004;2023-02-01T17:07:15;6.10;68.80
6824;DHT22;58633;49.470;11.004;2023-02-01T17:09:42;6.10;68.70
6824;DHT22;58633;49.470;11.004;2023-02-01T17:12:21;6.10;68.40
6824;DHT22;58633;49.470;11.004;2023-02-01T17:14:47;6.10;69.00
6824;DHT22;58633;49.470;11.004;2023-02-01T17:17:16;6.10;68.80
6824;DHT22;58633;49.470;11.004;2023-02-01T17:19:48;6.10;68.30
6824;DHT22;58633;49.470;11.004;2023-02-01T17:22:20;6.10;68.20
6824;DHT22;58633;49.470;11.004;2023-02-01T17:24:46;6.10;68.20
6824;DHT22;58633;49.470;11.004;2023-02-01T17:27:13;6.10;68.10
6824;DHT22;58633;49.470;11.004;2023-02-01T17:29:39;6.10;68.30
6824;DHT22;58633;49.470;11.004;2023-02-01T17:32:05;5.20;67.80
6824;DHT22;58633;49.470;11.004;2023-02-01T17:34:37;6.10;68.30
6824;DHT22;58633;49.470;11.004;2023-02-01T17:37:05;6.10;68.30
6824;DHT22;58633;49.470;11.004;2023-02-01T17:39:33;6.10;68.20
6824;DHT22;58633;49.470;11.004;2023-02-01T17:42:17;6.10;68.20
6824;DHT22;58633;49.470;11.004;2023-02-01T17:44:44;6.10;68.40
6824;DHT22;58633;49.470;11.004;2023-02-01T17:47:09;6.10;68.30
6824;DHT22;58633;49.470;11.004;2023-02-01T17:49:35;6.10;68.20
6824;DHT22;58633;49.470;11.004;2023-02-01T17:52:07;6.10;68.10
6824;DHT22;58633;49.470;11.004;2023-02-01T17:54:34;6.10;68.20
6824;DHT22;58633;49.470;11.004;2023-02-01T17:56:59;6.10;68.20
6824;DHT22;58633;49.470;11.004;2023-02-01T17:59:27;6.10;68.30
6824;DHT22;58633;49.470;11.004;2023-02-01T18:01:53;6.10;68.30
6824;DHT22;58633;49.470;11.004;2023-02-01T18:04:25;6.10;68.60
6824;DHT22;58633;49.470;11.004;2023-02-01T18:06:50;6.10;68.50
6824;DHT22;58633;49.470;11.004;2023-02-01T18:09:16;6.00;68.20
6824;DHT22;58633;49.470;11.004;2023-02-01T18:11:41;6.00;68.60